Pajala, Sweden

8:26 AM CEST on July 30, 2016 (GMT +0200)
Kittila | | Change Station

Elev 643 ft 67.70 °N, 24.86 °E | Updated 6 minutes ago

Overcast
Overcast
55 °F
Feels Like 55 °F
N
1
Wind Variable Wind from South

Today
High -- | Low -- °F
--% Chance of Precip.
Yesterday
High -- | Low -- °F
Precip. -- in
Pressure 29.77 in
Visibility 1.4 miles
Clouds Overcast 200 ft
Dew Point 55 °F
Humidity 100%
Rainfall 0.00 in
Snow Depth Not available.
2:47 AM 10:14 PM
Waning Crescent, 15% visible
METAR EFKT 300620Z AUTO 19001KT 2300 BCBR OVC002 13/13 Q1008
Pressure 29.77 in
Visibility 1.4 miles
Clouds Overcast 200 ft
Dew Point 55 °F
Humidity 100%
Rainfall 0.00 in
Snow Depth Not available.
2:47 AM 10:14 PM
Waning Crescent, 15% visible
METAR EFKT 300620Z AUTO 19001KT 2300 BCBR OVC002 13/13 Q1008

10-Day Weather Forecast

×

Almanac

Astronomy

Jul. 30, 2016 Rise Set
Actual Time
Civil Twilight
Nautical Twilight
Astronomical Twilight
Moon
Length of Visible Light
Length of Day
Tomorrow will be .
, % of the Moon is Illuminated

Today's Extremes

Country Highs Country Lows

Community

WunderPhotos

Upload Photos

1,928,508 photos uploaded!

WunderBlog® & News

Nearby

Air Quality

  Air Quality AQ Index Pollutant
Not available.

Snow Depth

Station Depth Elevation

Earthquake Activity

City Distance Mag. Time & Date
Minimum magnitude displayed is 2.5.

Coastal Water Temperatures

Place Temperature

Stations

Nearby Weather Stations

Station Location Temp. Windchill Dew Point Humidity Wind Precip. Elev Updated Type